createdAt,value
2023-02-25T00:01:15.024Z,22.20
2023-02-25T00:03:47.110Z,20.50
2023-02-25T00:06:18.847Z,17.20
2023-02-25T00:08:51.785Z,22.70
2023-02-25T00:11:26.588Z,18.60
2023-02-25T00:13:58.525Z,20.30
2023-02-25T00:16:30.574Z,21.80
2023-02-25T00:19:03.760Z,21.20
2023-02-25T00:21:35.782Z,23.10
2023-02-25T00:24:16.311Z,18.70
2023-02-25T00:26:48.883Z,27.10
2023-02-25T00:29:20.585Z,24.90
2023-02-25T00:31:52.726Z,20.80
2023-02-25T00:34:24.954Z,22.30
2023-02-25T00:36:56.996Z,25.10
2023-02-25T00:39:41.940Z,24.10
2023-02-25T00:42:16.680Z,23.10
2023-02-25T00:44:50.359Z,22.00
2023-02-25T00:47:22.595Z,25.00
2023-02-25T00:49:54.542Z,26.40
2023-02-25T00:52:26.286Z,15.80
2023-02-25T00:54:57.983Z,24.10
2023-02-25T00:57:29.681Z,27.70
2023-02-25T01:00:01.493Z,27.20
2023-02-25T01:02:33.223Z,28.60
2023-02-25T01:05:05.834Z,26.80
2023-02-25T01:07:38.236Z,32.80
2023-02-25T01:10:12.465Z,28.10
2023-02-25T01:12:44.275Z,25.00
2023-02-25T01:15:16.369Z,32.50
2023-02-25T01:17:48.354Z,29.60
2023-02-25T01:20:22.914Z,23.50
2023-02-25T01:22:54.626Z,27.60
2023-02-25T01:25:27.729Z,28.50
2023-02-25T01:28:00.433Z,20.70
2023-02-25T01:33:02.451Z,27.10
2023-02-25T01:35:36.602Z,18.40
2023-02-25T01:38:08.359Z,24.80
2023-02-25T01:40:40.351Z,26.00
2023-02-25T01:43:16.924Z,25.40
2023-02-25T01:45:48.888Z,26.60
2023-02-25T01:48:23.349Z,25.80
2023-02-25T01:50:59.932Z,24.50
2023-02-25T01:53:35.048Z,26.60
2023-02-25T01:56:08.593Z,25.80
2023-02-25T01:58:42.195Z,24.60
2023-02-25T02:01:16.584Z,27.20
2023-02-25T02:03:50.827Z,24.60
2023-02-25T02:06:28.188Z,23.40
2023-02-25T02:09:01.727Z,25.90
2023-02-25T02:11:35.240Z,23.00
2023-02-25T02:17:10.143Z,21.40
2023-02-25T02:20:11.515Z,16.30
2023-02-25T02:22:53.449Z,24.50
2023-02-25T02:25:53.456Z,22.00
2023-02-25T02:29:01.277Z,22.50
2023-02-25T02:32:03.351Z,21.00
2023-02-25T02:34:42.664Z,25.40
2023-02-25T02:37:26.519Z,22.30
2023-02-25T02:40:15.672Z,24.20
2023-02-25T02:42:58.735Z,28.00
2023-02-25T02:45:38.090Z,23.40
2023-02-25T02:48:14.803Z,25.00
2023-02-25T02:50:52.379Z,21.20
2023-02-25T02:53:29.859Z,22.00
2023-02-25T02:56:04.813Z,24.60
2023-02-25T02:58:42.332Z,23.00
2023-02-25T03:01:16.946Z,20.00
2023-02-25T03:03:59.644Z,18.40
2023-02-25T03:06:34.980Z,21.90
2023-02-25T03:09:11.545Z,21.20
2023-02-25T03:11:44.061Z,21.40
2023-02-25T03:14:16.223Z,19.90
2023-02-25T03:16:52.170Z,19.60
2023-02-25T03:19:28.415Z,18.10
2023-02-25T03:22:07.095Z,19.60
2023-02-25T03:24:45.474Z,22.90
2023-02-25T03:27:29.692Z,20.80
2023-02-25T03:30:14.815Z,20.60
2023-02-25T03:32:52.373Z,18.70
2023-02-25T03:35:27.167Z,19.30
2023-02-25T03:38:04.236Z,19.20
2023-02-25T03:40:41.145Z,18.80
2023-02-25T03:43:17.379Z,21.00
2023-02-25T03:45:50.133Z,26.60
2023-02-25T03:48:22.458Z,25.60
2023-02-25T03:51:00.662Z,20.50
2023-02-25T03:53:35.357Z,24.50
2023-02-25T03:56:16.734Z,25.80
2023-02-25T03:58:48.570Z,23.80
2023-02-25T04:01:26.013Z,23.40
2023-02-25T04:03:57.821Z,22.80
2023-02-25T04:06:29.525Z,24.50
2023-02-25T04:09:01.523Z,21.20
2023-02-25T04:11:33.421Z,24.40
2023-02-25T04:14:05.418Z,18.50
2023-02-25T04:16:37.235Z,13.40
2023-02-25T04:19:09.081Z,20.90
2023-02-25T04:21:41.279Z,16.10
2023-02-25T04:24:13.261Z,20.50
2023-02-25T04:26:45.190Z,22.30
2023-02-25T04:29:17.266Z,17.00
2023-02-25T04:31:49.121Z,16.80
2023-02-25T04:34:21.225Z,18.60
2023-02-25T04:36:53.792Z,20.50
2023-02-25T04:39:25.527Z,19.90
2023-02-25T04:41:57.661Z,11.30
2023-02-25T04:44:29.452Z,16.70
2023-02-25T04:47:01.112Z,15.30
2023-02-25T04:49:33.092Z,15.40
2023-02-25T04:52:05.186Z,15.50
2023-02-25T04:54:37.053Z,12.70
2023-02-25T04:57:09.738Z,17.80
2023-02-25T04:59:41.881Z,15.80
2023-02-25T05:02:13.760Z,14.80
2023-02-25T05:04:45.744Z,16.30
2023-02-25T05:07:18.048Z,8.40
2023-02-25T05:09:49.830Z,11.10
2023-02-25T05:12:21.585Z,12.70
2023-02-25T05:14:53.278Z,6.40
2023-02-25T05:17:25.024Z,10.70
2023-02-25T05:19:58.495Z,9.70
2023-02-25T05:22:30.617Z,12.00
2023-02-25T05:25:03.005Z,10.10
2023-02-25T05:27:35.451Z,9.30
2023-02-25T05:30:09.170Z,10.10
2023-02-25T05:32:41.179Z,8.30
2023-02-25T05:35:13.089Z,10.70
2023-02-25T05:37:44.876Z,11.80
2023-02-25T05:40:17.454Z,7.90
2023-02-25T05:42:49.567Z,8.40
2023-02-25T05:45:21.613Z,10.70
2023-02-25T05:47:53.791Z,9.50
2023-02-25T05:50:25.506Z,9.90
2023-02-25T05:52:57.632Z,7.40
2023-02-25T05:55:29.972Z,9.40
2023-02-25T05:58:02.003Z,8.00
2023-02-25T06:00:33.977Z,8.00
2023-02-25T06:03:06.176Z,8.10
2023-02-25T06:05:42.788Z,7.20
2023-02-25T06:08:14.861Z,7.40
2023-02-25T06:10:46.589Z,8.40
2023-02-25T06:13:18.766Z,6.50
2023-02-25T06:15:50.429Z,8.20
2023-02-25T06:18:22.391Z,4.60
2023-02-25T06:20:55.014Z,5.50
2023-02-25T06:25:58.884Z,6.80
2023-02-25T06:28:31.561Z,6.50
2023-02-25T06:31:03.827Z,5.00
2023-02-25T06:33:35.495Z,5.40
2023-02-25T06:36:08.887Z,5.30
2023-02-25T06:38:41.233Z,5.20
2023-02-25T06:41:18.237Z,5.40
2023-02-25T06:43:52.010Z,5.00
2023-02-25T06:46:26.133Z,5.80
2023-02-25T06:48:58.304Z,6.60
2023-02-25T06:51:30.362Z,5.90
2023-02-25T06:54:03.217Z,4.10
2023-02-25T06:56:35.347Z,5.60
2023-02-25T06:59:07.355Z,3.50
2023-02-25T07:01:39.161Z,5.00
2023-02-25T07:04:15.861Z,3.40
2023-02-25T07:06:48.050Z,4.50
2023-02-25T07:09:19.801Z,4.80
2023-02-25T07:11:51.664Z,3.90
2023-02-25T07:14:23.457Z,4.80
2023-02-25T07:16:55.782Z,4.80
2023-02-25T07:19:27.723Z,4.30
2023-02-25T07:21:59.874Z,4.60
2023-02-25T07:24:32.019Z,4.30
2023-02-25T07:27:04.005Z,4.00
2023-02-25T07:29:36.442Z,4.90
2023-02-25T07:32:09.526Z,4.60
2023-02-25T07:34:41.398Z,4.00
2023-02-25T07:37:13.886Z,4.90
2023-02-25T07:39:47.624Z,5.50
2023-02-25T07:42:19.597Z,3.70
2023-02-25T07:44:53.046Z,5.00
2023-02-25T07:47:24.920Z,8.00
2023-02-25T07:49:56.703Z,6.70
2023-02-25T07:52:29.095Z,6.80
2023-02-25T07:55:00.848Z,8.10
2023-02-25T07:57:32.903Z,6.80
2023-02-25T08:00:10.323Z,5.90
2023-02-25T08:02:46.090Z,8.00
2023-02-25T08:05:21.890Z,6.80
2023-02-25T08:07:53.694Z,8.20
2023-02-25T08:10:25.860Z,6.20
2023-02-25T08:12:57.679Z,6.50
2023-02-25T08:15:29.473Z,8.40
2023-02-25T08:18:01.564Z,5.60
2023-02-25T08:20:33.366Z,8.70
2023-02-25T08:23:06.333Z,6.80
2023-02-25T08:25:38.154Z,9.00
2023-02-25T08:28:10.415Z,9.70
2023-02-25T08:30:42.351Z,12.00
2023-02-25T08:33:14.144Z,13.60
2023-02-25T08:35:46.179Z,13.00
2023-02-25T08:38:17.967Z,14.70
2023-02-25T08:40:50.561Z,19.20
2023-02-25T08:43:22.418Z,11.90
2023-02-25T08:45:55.420Z,8.90
2023-02-25T08:48:27.633Z,7.10
2023-02-25T08:51:02.523Z,8.70
2023-02-25T08:53:34.451Z,13.20
2023-02-25T08:56:07.020Z,18.10
2023-02-25T08:58:39.795Z,13.90
2023-02-25T09:01:14.745Z,13.00
2023-02-25T09:03:52.139Z,11.80
2023-02-25T09:06:26.560Z,8.30
2023-02-25T09:08:58.978Z,9.40
2023-02-25T09:11:30.969Z,9.20
2023-02-25T09:14:02.845Z,11.60
2023-02-25T09:16:34.668Z,8.00
2023-02-25T09:19:07.118Z,8.00
2023-02-25T09:21:40.352Z,8.10
2023-02-25T09:24:12.932Z,9.40
2023-02-25T09:26:44.808Z,8.40
2023-02-25T09:29:17.084Z,5.30
2023-02-25T09:31:49.445Z,6.20
2023-02-25T09:34:21.357Z,8.90
2023-02-25T09:36:53.319Z,6.50
2023-02-25T09:39:25.231Z,4.20
2023-02-25T09:42:01.076Z,6.90
2023-02-25T09:44:37.373Z,10.00
2023-02-25T09:47:19.323Z,8.10
2023-02-25T09:49:57.029Z,4.90
2023-02-25T09:52:33.008Z,4.20
2023-02-25T09:55:09.530Z,4.60
2023-02-25T09:57:46.827Z,4.00
2023-02-25T10:00:23.636Z,4.00
2023-02-25T10:03:00.732Z,5.10
2023-02-25T10:05:44.219Z,9.00
2023-02-25T10:08:22.865Z,11.60
2023-02-25T10:11:03.830Z,6.20
2023-02-25T10:13:46.150Z,6.80
2023-02-25T10:16:30.705Z,3.20
2023-02-25T10:19:12.349Z,3.70
2023-02-25T10:21:58.412Z,5.90
2023-02-25T10:24:39.906Z,6.50
2023-02-25T10:27:21.632Z,3.70
2023-02-25T10:29:56.580Z,4.30
2023-02-25T10:32:32.521Z,6.60
2023-02-25T10:35:18.146Z,5.00
2023-02-25T10:37:50.239Z,3.70
2023-02-25T10:40:24.444Z,4.10
2023-02-25T10:43:01.068Z,6.70
2023-02-25T10:45:33.664Z,5.20
2023-02-25T10:48:13.487Z,4.40
2023-02-25T10:51:02.645Z,5.90
2023-02-25T10:53:35.091Z,24.40
2023-02-25T10:56:08.690Z,17.30
2023-02-25T10:58:44.625Z,41.00
2023-02-25T11:01:20.514Z,11.40
2023-02-25T11:04:03.764Z,8.10
2023-02-25T11:06:38.171Z,9.40
2023-02-25T11:09:31.733Z,7.40
2023-02-25T11:12:18.903Z,5.30
2023-02-25T11:14:50.872Z,5.10
2023-02-25T11:17:23.262Z,6.10
2023-02-25T11:20:01.459Z,2.50
2023-02-25T11:22:39.980Z,2.70
2023-02-25T11:25:19.972Z,3.10
2023-02-25T11:27:58.695Z,3.90
2023-02-25T11:30:35.380Z,3.90
2023-02-25T11:33:15.417Z,2.80
2023-02-25T11:35:47.437Z,2.30
2023-02-25T11:38:28.367Z,2.30
2023-02-25T11:41:00.610Z,5.20
2023-02-25T11:43:40.681Z,5.60
2023-02-25T11:46:19.588Z,3.10
2023-02-25T11:48:53.844Z,2.80
2023-02-25T11:51:31.486Z,7.60
2023-02-25T11:54:25.688Z,3.70
2023-02-25T11:57:06.373Z,2.40
2023-02-25T11:59:40.340Z,2.50
2023-02-25T12:02:28.683Z,2.90
2023-02-25T12:05:35.188Z,2.90
2023-02-25T12:08:33.177Z,3.40
2023-02-25T12:11:36.614Z,4.00
2023-02-25T12:14:34.840Z,2.40
2023-02-25T12:17:37.628Z,2.50
2023-02-25T12:20:42.656Z,2.50
2023-02-25T12:24:00.759Z,2.80
2023-02-25T12:26:45.079Z,3.80
2023-02-25T12:29:39.517Z,1.40
2023-02-25T12:32:26.469Z,3.60
2023-02-25T12:35:28.343Z,2.50
2023-02-25T12:38:23.198Z,2.80
2023-02-25T12:41:12.053Z,1.90
2023-02-25T12:43:53.256Z,3.90
2023-02-25T12:46:33.685Z,2.00
2023-02-25T12:49:34.284Z,3.00
2023-02-25T12:52:17.575Z,4.60
2023-02-25T12:55:10.648Z,4.50
2023-02-25T12:57:52.899Z,6.20
2023-02-25T13:00:58.608Z,3.70
2023-02-25T13:03:43.131Z,3.10
2023-02-25T13:06:41.178Z,4.30
2023-02-25T13:09:54.440Z,3.20
2023-02-25T13:12:45.095Z,3.30
2023-02-25T13:15:21.851Z,3.20
2023-02-25T13:18:10.950Z,3.90
2023-02-25T13:20:54.515Z,4.10
2023-02-25T13:23:44.839Z,3.40
2023-02-25T13:26:29.017Z,6.20
2023-02-25T13:29:19.950Z,7.70
2023-02-25T13:32:13.806Z,4.80
2023-02-25T13:34:52.057Z,5.10
2023-02-25T13:37:42.663Z,6.60
2023-02-25T13:40:32.739Z,5.80
2023-02-25T13:43:22.814Z,4.90
2023-02-25T13:46:13.981Z,4.40
2023-02-25T13:49:18.480Z,5.80
2023-02-25T13:52:17.939Z,7.20
2023-02-25T13:55:29.513Z,4.00
2023-02-25T13:58:20.708Z,4.90
2023-02-25T14:01:28.269Z,4.70
2023-02-25T14:04:35.080Z,4.00
2023-02-25T14:07:32.233Z,5.20
2023-02-25T14:10:22.798Z,6.90
2023-02-25T14:13:12.994Z,5.70
2023-02-25T14:15:56.204Z,4.50
2023-02-25T14:18:46.768Z,5.90
2023-02-25T14:21:44.739Z,5.30
2023-02-25T14:24:25.293Z,4.00
2023-02-25T14:27:10.307Z,5.20
2023-02-25T14:29:59.785Z,5.50
2023-02-25T14:32:44.789Z,4.20
2023-02-25T14:35:36.602Z,4.90
2023-02-25T14:38:13.797Z,5.20
2023-02-25T14:40:52.565Z,6.10
2023-02-25T14:43:32.233Z,6.10
2023-02-25T14:46:15.433Z,6.50
2023-02-25T14:48:57.020Z,8.40
2023-02-25T14:52:02.340Z,5.40
2023-02-25T14:54:56.089Z,3.40
2023-02-25T14:58:00.366Z,75.50
2023-02-25T15:00:59.673Z,118.60
2023-02-25T15:03:54.442Z,212.50
2023-02-25T15:06:57.507Z,6.20
2023-02-25T15:10:14.929Z,6.90
2023-02-25T15:13:12.300Z,4.80
2023-02-25T15:16:18.151Z,8.20
2023-02-25T15:19:17.061Z,7.20
2023-02-25T15:21:51.958Z,7.50
2023-02-25T15:24:44.334Z,5.30
2023-02-25T15:27:46.964Z,5.00
2023-02-25T15:30:22.195Z,4.90
2023-02-25T15:33:07.017Z,5.00
2023-02-25T15:35:58.538Z,5.30
2023-02-25T15:38:45.511Z,5.20
2023-02-25T15:41:42.536Z,7.40
2023-02-25T15:44:37.188Z,7.10
2023-02-25T15:47:30.261Z,10.50
2023-02-25T15:50:03.527Z,6.00
2023-02-25T15:52:59.765Z,6.80
2023-02-25T15:55:41.322Z,6.20
2023-02-25T15:58:44.077Z,5.90
2023-02-25T16:01:43.673Z,5.50
2023-02-25T16:04:51.697Z,6.60
2023-02-25T16:07:30.586Z,6.00
2023-02-25T16:10:06.551Z,5.80
2023-02-25T16:12:43.401Z,6.90
2023-02-25T16:15:27.197Z,8.50
2023-02-25T16:18:06.924Z,4.70
2023-02-25T16:20:47.363Z,6.20
2023-02-25T16:23:20.530Z,11.30
2023-02-25T16:26:04.686Z,8.00
2023-02-25T16:28:50.776Z,8.30
2023-02-25T16:31:32.296Z,5.50
2023-02-25T16:34:13.657Z,4.50
2023-02-25T16:36:55.857Z,5.10
2023-02-25T16:39:30.632Z,9.20
2023-02-25T16:42:09.442Z,4.50
2023-02-25T16:44:44.901Z,5.50
2023-02-25T16:47:27.571Z,8.40
2023-02-25T16:50:01.520Z,7.00
2023-02-25T16:52:40.341Z,7.40
2023-02-25T16:55:18.604Z,7.80
2023-02-25T16:58:06.192Z,5.80
2023-02-25T17:00:38.095Z,12.90
2023-02-25T17:03:13.601Z,7.60
2023-02-25T17:05:45.924Z,9.10
2023-02-25T17:08:19.834Z,10.30
2023-02-25T17:10:56.503Z,9.40
2023-02-25T17:13:32.902Z,7.70
2023-02-25T17:16:06.326Z,8.20
2023-02-25T17:18:46.283Z,8.80
2023-02-25T17:21:24.052Z,9.30
2023-02-25T17:23:57.416Z,11.30
2023-02-25T17:26:30.011Z,9.40
2023-02-25T17:29:10.302Z,10.40
2023-02-25T17:31:48.781Z,11.90
2023-02-25T17:34:26.948Z,7.80
2023-02-25T17:37:04.360Z,22.40
2023-02-25T17:39:36.890Z,11.60
2023-02-25T17:42:32.120Z,10.00
2023-02-25T17:45:07.257Z,13.30
2023-02-25T17:47:38.962Z,11.30
2023-02-25T17:50:30.293Z,10.20
2023-02-25T17:53:05.300Z,13.90
2023-02-25T17:55:37.583Z,7.20
2023-02-25T17:58:22.357Z,13.70
2023-02-25T18:01:03.828Z,11.20
2023-02-25T18:03:46.055Z,9.10
2023-02-25T18:06:33.459Z,9.30
2023-02-25T18:09:06.270Z,12.30
2023-02-25T18:11:41.348Z,10.70
2023-02-25T18:14:29.612Z,11.10
2023-02-25T18:17:02.559Z,8.90
2023-02-25T18:19:41.179Z,6.70
2023-02-25T18:22:30.786Z,12.20
2023-02-25T18:25:05.628Z,7.20
2023-02-25T18:27:38.451Z,8.20
2023-02-25T18:30:21.772Z,10.20
2023-02-25T18:32:54.580Z,9.60
2023-02-25T18:35:27.490Z,6.80
2023-02-25T18:38:00.973Z,6.70
2023-02-25T18:40:36.090Z,7.90
2023-02-25T18:43:10.923Z,8.80
2023-02-25T18:45:43.017Z,9.30
2023-02-25T18:48:14.948Z,8.20
2023-02-25T18:50:46.783Z,6.60
2023-02-25T18:53:20.700Z,6.40
2023-02-25T18:55:53.611Z,9.50
2023-02-25T18:58:26.136Z,30.10
2023-02-25T19:03:33.284Z,9.70
2023-02-25T19:06:05.518Z,7.70
2023-02-25T19:08:37.490Z,12.60
2023-02-25T19:11:12.254Z,8.80
2023-02-25T19:13:44.911Z,7.20
2023-02-25T19:16:17.122Z,7.60
2023-02-25T19:18:49.508Z,6.60
2023-02-25T19:21:22.932Z,10.70
2023-02-25T19:23:55.455Z,10.20
2023-02-25T19:26:27.419Z,9.80
2023-02-25T19:29:00.612Z,9.10
2023-02-25T19:31:32.458Z,7.60
2023-02-25T19:34:04.502Z,10.90
2023-02-25T19:36:36.309Z,12.00
2023-02-25T19:39:07.935Z,14.20
2023-02-25T19:41:40.493Z,29.60
2023-02-25T19:44:12.479Z,10.10
2023-02-25T19:46:44.762Z,13.00
2023-02-25T19:49:16.679Z,7.00
2023-02-25T19:51:48.675Z,12.80
2023-02-25T19:54:21.144Z,6.80
2023-02-25T19:56:53.013Z,4.50
2023-02-25T19:59:24.728Z,10.60
2023-02-25T20:01:56.506Z,8.70
2023-02-25T20:04:29.146Z,8.80
2023-02-25T20:09:32.773Z,8.30
2023-02-25T20:12:04.853Z,9.50
2023-02-25T20:14:38.327Z,4.10
2023-02-25T20:17:10.685Z,5.60
2023-02-25T20:19:43.348Z,12.30
2023-02-25T20:24:46.687Z,36.20
2023-02-25T20:27:19.140Z,28.20
2023-02-25T20:32:21.599Z,29.30
2023-02-25T20:34:54.146Z,13.70
2023-02-25T20:37:31.203Z,5.90
2023-02-25T20:40:07.959Z,9.80
2023-02-25T20:42:40.228Z,12.50
2023-02-25T20:45:18.042Z,11.00
2023-02-25T20:47:50.575Z,12.00
2023-02-25T20:50:28.496Z,14.80
2023-02-25T20:53:01.314Z,14.60
2023-02-25T20:58:03.442Z,13.10
2023-02-25T21:00:35.153Z,6.20
2023-02-25T21:03:07.106Z,15.90
2023-02-25T21:05:40.241Z,25.40
2023-02-25T21:10:43.256Z,15.70
2023-02-25T21:13:15.897Z,9.60
2023-02-25T21:18:18.429Z,8.30
2023-02-25T21:20:50.267Z,10.40
2023-02-25T21:23:24.523Z,5.50
2023-02-25T21:25:59.744Z,9.90
2023-02-25T21:31:05.841Z,13.60
2023-02-25T21:33:39.076Z,9.70
2023-02-25T21:36:11.883Z,13.00
2023-02-25T21:38:43.599Z,11.00
2023-02-25T21:41:16.906Z,7.90
2023-02-25T21:43:48.679Z,5.70
2023-02-25T21:46:20.878Z,4.10
2023-02-25T21:48:53.564Z,4.70
2023-02-25T21:51:29.228Z,7.30
2023-02-25T21:54:02.672Z,6.70
2023-02-25T21:56:34.495Z,8.40
2023-02-25T21:59:07.270Z,6.60
2023-02-25T22:01:41.355Z,9.20
2023-02-25T22:04:13.589Z,9.00
2023-02-25T22:06:48.806Z,6.20
2023-02-25T22:09:20.867Z,9.40
2023-02-25T22:11:52.742Z,23.30
2023-02-25T22:14:26.260Z,14.90
2023-02-25T22:16:59.964Z,6.90
2023-02-25T22:19:33.598Z,13.50
2023-02-25T22:22:05.287Z,12.40
2023-02-25T22:24:37.157Z,9.60
2023-02-25T22:27:09.485Z,7.80
2023-02-25T22:29:41.273Z,8.60
2023-02-25T22:32:13.099Z,6.80
2023-02-25T22:34:45.825Z,10.80
2023-02-25T22:39:47.742Z,7.20
2023-02-25T22:42:19.710Z,5.50
2023-02-25T22:44:51.509Z,6.40
2023-02-25T22:47:23.825Z,10.30
2023-02-25T22:49:55.901Z,4.70
2023-02-25T22:52:27.825Z,9.40
2023-02-25T22:54:59.820Z,7.40
2023-02-25T22:57:31.540Z,12.30
2023-02-25T23:00:16.630Z,6.50
2023-02-25T23:02:48.412Z,5.10
2023-02-25T23:05:20.401Z,7.50
2023-02-25T23:07:52.371Z,8.10
2023-02-25T23:10:24.216Z,5.90
2023-02-25T23:12:58.511Z,7.40
2023-02-25T23:15:30.589Z,6.20
2023-02-25T23:18:03.569Z,3.40
2023-02-25T23:20:37.121Z,9.50
2023-02-25T23:23:13.477Z,7.20
2023-02-25T23:25:51.165Z,6.50
2023-02-25T23:28:23.022Z,5.30
2023-02-25T23:30:54.829Z,4.70
2023-02-25T23:33:26.739Z,6.10
2023-02-25T23:35:58.674Z,4.00
2023-02-25T23:38:30.512Z,7.00
2023-02-25T23:41:02.824Z,4.50
2023-02-25T23:43:34.603Z,4.60
2023-02-25T23:46:07.532Z,6.20
2023-02-25T23:48:39.501Z,6.80
2023-02-25T23:51:11.982Z,11.10
2023-02-25T23:53:44.873Z,6.70
2023-02-25T23:56:16.851Z,5.70
2023-02-25T23:58:50.998Z,6.10
